Arkdale, Wisconsin
Current Conditions -  °F | °C
As of 9:58 PM on Sunday 19 Oct 2014 (Local Time) from KVOK Reporting Station
Clear Clear  
Wind Chill: 12°   Ceiling: Unl
Heat Index: 12°   Visibility: 10mi
Dew Point:   Wind: 7mph
Humidity: 76%   Direction: 230°SW
Pressure: 29.79"   Gusts: NA
Location:  44.03°N, 89.89°W
Report Text: KVOK 200258Z AUTO 23006KT 10SM CLR 12/08 A2979 RMK AO2 SLP094 T01240082 57014
Loading
Personal Weather Stations






























Interactive Weather Map
Tropical Storm Tracking
New forecast layout! Learn more

10-Day Weather Forecast

Advertisements
Track Severe Weather on mobile